sensor_id;sensor_type;location;lat;lon;timestamp;P1;durP1;ratioP1;P2;durP2;ratioP2
10851;SDS011;5479;52.046;6.314;2023-11-21T00:00:27;25.17;;;16.70;;
10851;SDS011;5479;52.046;6.314;2023-11-21T00:02:57;23.93;;;16.07;;
10851;SDS011;5479;52.046;6.314;2023-11-21T00:05:25;38.20;;;18.10;;
10851;SDS011;5479;52.046;6.314;2023-11-21T00:07:53;24.57;;;16.93;;
10851;SDS011;5479;52.046;6.314;2023-11-21T00:10:20;28.97;;;17.93;;
10851;SDS011;5479;52.046;6.314;2023-11-21T00:12:48;24.37;;;16.33;;
10851;SDS011;5479;52.046;6.314;2023-11-21T00:15:16;26.30;;;16.57;;
10851;SDS011;5479;52.046;6.314;2023-11-21T00:17:46;25.40;;;16.43;;
10851;SDS011;5479;52.046;6.314;2023-11-21T00:20:15;24.70;;;16.77;;
10851;SDS011;5479;52.046;6.314;2023-11-21T00:22:43;21.73;;;15.03;;
10851;SDS011;5479;52.046;6.314;2023-11-21T00:25:11;20.87;;;14.53;;
10851;SDS011;5479;52.046;6.314;2023-11-21T00:27:41;24.13;;;15.23;;
10851;SDS011;5479;52.046;6.314;2023-11-21T00:30:09;23.40;;;15.50;;
10851;SDS011;5479;52.046;6.314;2023-11-21T00:32:38;20.67;;;14.77;;
10851;SDS011;5479;52.046;6.314;2023-11-21T00:35:06;25.40;;;16.47;;
10851;SDS011;5479;52.046;6.314;2023-11-21T00:37:35;21.03;;;15.77;;
10851;SDS011;5479;52.046;6.314;2023-11-21T00:40:05;27.23;;;17.00;;
10851;SDS011;5479;52.046;6.314;2023-11-21T00:42:35;22.60;;;15.97;;
10851;SDS011;5479;52.046;6.314;2023-11-21T00:45:03;23.53;;;16.10;;
10851;SDS011;5479;52.046;6.314;2023-11-21T00:47:32;24.53;;;17.57;;
10851;SDS011;5479;52.046;6.314;2023-11-21T00:50:00;22.37;;;16.17;;
10851;SDS011;5479;52.046;6.314;2023-11-21T00:52:28;24.60;;;17.50;;
10851;SDS011;5479;52.046;6.314;2023-11-21T00:54:57;25.50;;;16.70;;
10851;SDS011;5479;52.046;6.314;2023-11-21T00:57:26;25.37;;;16.40;;
10851;SDS011;5479;52.046;6.314;2023-11-21T00:59:54;25.50;;;17.77;;
10851;SDS011;5479;52.046;6.314;2023-11-21T01:02:22;26.07;;;17.83;;
10851;SDS011;5479;52.046;6.314;2023-11-21T01:04:50;26.53;;;18.60;;
10851;SDS011;5479;52.046;6.314;2023-11-21T01:07:18;25.27;;;17.17;;
10851;SDS011;5479;52.046;6.314;2023-11-21T01:09:47;23.70;;;17.50;;
10851;SDS011;5479;52.046;6.314;2023-11-21T01:12:16;28.40;;;18.73;;
10851;SDS011;5479;52.046;6.314;2023-11-21T01:14:45;29.50;;;18.87;;
10851;SDS011;5479;52.046;6.314;2023-11-21T01:17:15;27.47;;;18.13;;
10851;SDS011;5479;52.046;6.314;2023-11-21T01:19:43;24.63;;;17.40;;
10851;SDS011;5479;52.046;6.314;2023-11-21T01:22:11;27.77;;;18.57;;
10851;SDS011;5479;52.046;6.314;2023-11-21T01:24:38;26.57;;;18.00;;
10851;SDS011;5479;52.046;6.314;2023-11-21T01:27:05;26.30;;;18.37;;
10851;SDS011;5479;52.046;6.314;2023-11-21T01:29:36;26.17;;;18.77;;
10851;SDS011;5479;52.046;6.314;2023-11-21T01:32:04;26.30;;;18.57;;
10851;SDS011;5479;52.046;6.314;2023-11-21T01:34:34;25.27;;;17.17;;
10851;SDS011;5479;52.046;6.314;2023-11-21T01:37:02;25.03;;;17.87;;
10851;SDS011;5479;52.046;6.314;2023-11-21T01:39:31;27.23;;;18.83;;
10851;SDS011;5479;52.046;6.314;2023-11-21T01:41:59;27.80;;;17.63;;
10851;SDS011;5479;52.046;6.314;2023-11-21T01:44:27;23.73;;;16.83;;
10851;SDS011;5479;52.046;6.314;2023-11-21T01:46:57;27.67;;;18.37;;
10851;SDS011;5479;52.046;6.314;2023-11-21T01:49:26;24.10;;;16.97;;
10851;SDS011;5479;52.046;6.314;2023-11-21T01:51:54;25.00;;;18.47;;
10851;SDS011;5479;52.046;6.314;2023-11-21T01:54:23;26.57;;;17.73;;
10851;SDS011;5479;52.046;6.314;2023-11-21T01:56:51;32.07;;;19.70;;
10851;SDS011;5479;52.046;6.314;2023-11-21T01:59:20;25.87;;;18.10;;
10851;SDS011;5479;52.046;6.314;2023-11-21T02:01:49;27.83;;;18.13;;
10851;SDS011;5479;52.046;6.314;2023-11-21T02:04:19;26.90;;;17.70;;
10851;SDS011;5479;52.046;6.314;2023-11-21T02:06:47;31.33;;;19.43;;
10851;SDS011;5479;52.046;6.314;2023-11-21T02:09:17;28.47;;;18.83;;
10851;SDS011;5479;52.046;6.314;2023-11-21T02:11:50;25.57;;;17.87;;
10851;SDS011;5479;52.046;6.314;2023-11-21T02:14:20;29.00;;;19.30;;
10851;SDS011;5479;52.046;6.314;2023-11-21T02:16:48;33.87;;;20.73;;
10851;SDS011;5479;52.046;6.314;2023-11-21T02:19:19;30.40;;;19.60;;
10851;SDS011;5479;52.046;6.314;2023-11-21T02:21:49;29.87;;;19.97;;
10851;SDS011;5479;52.046;6.314;2023-11-21T02:24:20;33.13;;;20.50;;
10851;SDS011;5479;52.046;6.314;2023-11-21T02:26:49;33.33;;;21.20;;
10851;SDS011;5479;52.046;6.314;2023-11-21T02:29:18;29.57;;;20.63;;
10851;SDS011;5479;52.046;6.314;2023-11-21T02:31:51;34.70;;;21.30;;
10851;SDS011;5479;52.046;6.314;2023-11-21T02:34:21;34.07;;;21.20;;
10851;SDS011;5479;52.046;6.314;2023-11-21T02:36:51;34.43;;;21.73;;
10851;SDS011;5479;52.046;6.314;2023-11-21T02:39:21;34.97;;;22.23;;
10851;SDS011;5479;52.046;6.314;2023-11-21T02:41:50;32.73;;;20.67;;
10851;SDS011;5479;52.046;6.314;2023-11-21T02:44:17;39.57;;;24.40;;
10851;SDS011;5479;52.046;6.314;2023-11-21T02:46:48;38.23;;;22.07;;
10851;SDS011;5479;52.046;6.314;2023-11-21T02:49:17;35.13;;;21.73;;
10851;SDS011;5479;52.046;6.314;2023-11-21T02:51:45;35.60;;;22.47;;
10851;SDS011;5479;52.046;6.314;2023-11-21T02:54:13;33.20;;;21.40;;
10851;SDS011;5479;52.046;6.314;2023-11-21T02:56:42;35.77;;;22.20;;
10851;SDS011;5479;52.046;6.314;2023-11-21T02:59:10;35.47;;;22.70;;
10851;SDS011;5479;52.046;6.314;2023-11-21T03:01:38;38.53;;;23.57;;
10851;SDS011;5479;52.046;6.314;2023-11-21T03:04:06;33.90;;;20.77;;
10851;SDS011;5479;52.046;6.314;2023-11-21T03:06:33;35.93;;;22.17;;
10851;SDS011;5479;52.046;6.314;2023-11-21T03:09:02;45.30;;;24.73;;
10851;SDS011;5479;52.046;6.314;2023-11-21T03:11:29;37.07;;;23.87;;
10851;SDS011;5479;52.046;6.314;2023-11-21T03:14:00;39.93;;;24.30;;
10851;SDS011;5479;52.046;6.314;2023-11-21T03:16:29;42.93;;;24.40;;
10851;SDS011;5479;52.046;6.314;2023-11-21T03:18:57;46.40;;;25.27;;
10851;SDS011;5479;52.046;6.314;2023-11-21T03:21:25;44.27;;;25.63;;
10851;SDS011;5479;52.046;6.314;2023-11-21T03:23:53;46.83;;;25.10;;
10851;SDS011;5479;52.046;6.314;2023-11-21T03:26:21;44.00;;;25.90;;
10851;SDS011;5479;52.046;6.314;2023-11-21T03:28:49;54.17;;;26.30;;
10851;SDS011;5479;52.046;6.314;2023-11-21T03:31:21;44.27;;;24.47;;
10851;SDS011;5479;52.046;6.314;2023-11-21T03:33:49;46.07;;;26.00;;
10851;SDS011;5479;52.046;6.314;2023-11-21T03:36:17;48.93;;;27.17;;
10851;SDS011;5479;52.046;6.314;2023-11-21T03:38:45;45.93;;;26.90;;
10851;SDS011;5479;52.046;6.314;2023-11-21T03:41:13;43.30;;;24.67;;
10851;SDS011;5479;52.046;6.314;2023-11-21T03:43:41;50.70;;;25.43;;
10851;SDS011;5479;52.046;6.314;2023-11-21T03:46:09;51.63;;;27.50;;
10851;SDS011;5479;52.046;6.314;2023-11-21T03:48:38;44.77;;;25.70;;
10851;SDS011;5479;52.046;6.314;2023-11-21T03:51:06;45.60;;;24.77;;
10851;SDS011;5479;52.046;6.314;2023-11-21T03:53:34;55.20;;;27.10;;
10851;SDS011;5479;52.046;6.314;2023-11-21T03:56:02;48.20;;;25.43;;
10851;SDS011;5479;52.046;6.314;2023-11-21T03:58:31;50.37;;;25.77;;
10851;SDS011;5479;52.046;6.314;2023-11-21T04:00:59;52.07;;;28.63;;
10851;SDS011;5479;52.046;6.314;2023-11-21T04:03:27;50.23;;;26.53;;
10851;SDS011;5479;52.046;6.314;2023-11-21T04:05:57;53.07;;;26.57;;
10851;SDS011;5479;52.046;6.314;2023-11-21T04:08:25;48.70;;;25.87;;
10851;SDS011;5479;52.046;6.314;2023-11-21T04:10:53;49.07;;;26.83;;
10851;SDS011;5479;52.046;6.314;2023-11-21T04:13:21;43.23;;;25.43;;
10851;SDS011;5479;52.046;6.314;2023-11-21T04:15:49;44.93;;;27.10;;
10851;SDS011;5479;52.046;6.314;2023-11-21T04:18:17;45.97;;;26.27;;
10851;SDS011;5479;52.046;6.314;2023-11-21T04:20:45;51.53;;;28.20;;
10851;SDS011;5479;52.046;6.314;2023-11-21T04:23:15;52.53;;;27.77;;
10851;SDS011;5479;52.046;6.314;2023-11-21T04:25:43;69.53;;;28.57;;
10851;SDS011;5479;52.046;6.314;2023-11-21T04:28:11;40.57;;;25.27;;
10851;SDS011;5479;52.046;6.314;2023-11-21T04:30:39;59.33;;;26.77;;
10851;SDS011;5479;52.046;6.314;2023-11-21T04:33:07;37.67;;;24.57;;
10851;SDS011;5479;52.046;6.314;2023-11-21T04:35:35;53.57;;;26.33;;
10851;SDS011;5479;52.046;6.314;2023-11-21T04:38:03;47.43;;;25.23;;
10851;SDS011;5479;52.046;6.314;2023-11-21T04:40:32;37.53;;;23.60;;
10851;SDS011;5479;52.046;6.314;2023-11-21T04:43:00;36.80;;;23.87;;
10851;SDS011;5479;52.046;6.314;2023-11-21T04:45:28;47.70;;;25.60;;
10851;SDS011;5479;52.046;6.314;2023-11-21T04:47:56;43.60;;;25.10;;
10851;SDS011;5479;52.046;6.314;2023-11-21T04:50:24;45.67;;;24.90;;
10851;SDS011;5479;52.046;6.314;2023-11-21T04:52:53;49.77;;;25.00;;
10851;SDS011;5479;52.046;6.314;2023-11-21T04:55:21;47.60;;;26.13;;
10851;SDS011;5479;52.046;6.314;2023-11-21T04:57:50;54.33;;;24.87;;
10851;SDS011;5479;52.046;6.314;2023-11-21T05:00:18;45.73;;;25.47;;
10851;SDS011;5479;52.046;6.314;2023-11-21T05:02:48;47.33;;;25.40;;
10851;SDS011;5479;52.046;6.314;2023-11-21T05:05:16;58.63;;;26.30;;
10851;SDS011;5479;52.046;6.314;2023-11-21T05:07:43;71.83;;;26.10;;
10851;SDS011;5479;52.046;6.314;2023-11-21T05:10:11;45.97;;;24.73;;
10851;SDS011;5479;52.046;6.314;2023-11-21T05:12:41;48.17;;;25.33;;
10851;SDS011;5479;52.046;6.314;2023-11-21T05:15:12;44.53;;;24.83;;
10851;SDS011;5479;52.046;6.314;2023-11-21T05:17:42;36.87;;;23.73;;
10851;SDS011;5479;52.046;6.314;2023-11-21T05:20:12;50.63;;;25.97;;
10851;SDS011;5479;52.046;6.314;2023-11-21T05:22:40;40.77;;;25.10;;
10851;SDS011;5479;52.046;6.314;2023-11-21T05:25:08;41.90;;;24.50;;
10851;SDS011;5479;52.046;6.314;2023-11-21T05:27:37;41.60;;;25.03;;
10851;SDS011;5479;52.046;6.314;2023-11-21T05:30:06;40.47;;;25.20;;
10851;SDS011;5479;52.046;6.314;2023-11-21T05:32:40;40.30;;;24.43;;
10851;SDS011;5479;52.046;6.314;2023-11-21T05:35:09;38.43;;;23.33;;
10851;SDS011;5479;52.046;6.314;2023-11-21T05:37:38;44.87;;;25.70;;
10851;SDS011;5479;52.046;6.314;2023-11-21T05:40:06;42.00;;;25.33;;
10851;SDS011;5479;52.046;6.314;2023-11-21T05:42:36;44.83;;;26.07;;
10851;SDS011;5479;52.046;6.314;2023-11-21T05:45:05;41.40;;;24.80;;
10851;SDS011;5479;52.046;6.314;2023-11-21T05:47:37;48.53;;;25.53;;
10851;SDS011;5479;52.046;6.314;2023-11-21T05:50:09;42.20;;;25.87;;
10851;SDS011;5479;52.046;6.314;2023-11-21T05:52:41;42.47;;;25.50;;
10851;SDS011;5479;52.046;6.314;2023-11-21T05:55:10;47.30;;;26.13;;
10851;SDS011;5479;52.046;6.314;2023-11-21T05:57:38;45.20;;;26.37;;
10851;SDS011;5479;52.046;6.314;2023-11-21T06:00:07;40.60;;;24.33;;
10851;SDS011;5479;52.046;6.314;2023-11-21T06:02:44;41.83;;;23.97;;
10851;SDS011;5479;52.046;6.314;2023-11-21T06:05:14;39.77;;;23.17;;
10851;SDS011;5479;52.046;6.314;2023-11-21T06:07:41;40.70;;;23.47;;
10851;SDS011;5479;52.046;6.314;2023-11-21T06:10:10;39.10;;;23.33;;
10851;SDS011;5479;52.046;6.314;2023-11-21T06:12:40;42.80;;;24.70;;
10851;SDS011;5479;52.046;6.314;2023-11-21T06:15:10;41.60;;;24.33;;
10851;SDS011;5479;52.046;6.314;2023-11-21T06:17:40;40.53;;;23.43;;
10851;SDS011;5479;52.046;6.314;2023-11-21T06:20:10;36.40;;;22.13;;
10851;SDS011;5479;52.046;6.314;2023-11-21T06:22:42;41.53;;;24.13;;
10851;SDS011;5479;52.046;6.314;2023-11-21T06:25:10;35.97;;;22.97;;
10851;SDS011;5479;52.046;6.314;2023-11-21T06:27:41;41.07;;;23.43;;
10851;SDS011;5479;52.046;6.314;2023-11-21T06:30:11;38.07;;;22.40;;
10851;SDS011;5479;52.046;6.314;2023-11-21T06:32:40;36.07;;;23.70;;
10851;SDS011;5479;52.046;6.314;2023-11-21T06:35:12;37.70;;;23.30;;
10851;SDS011;5479;52.046;6.314;2023-11-21T06:37:43;32.50;;;20.80;;
10851;SDS011;5479;52.046;6.314;2023-11-21T06:40:13;36.23;;;22.00;;
10851;SDS011;5479;52.046;6.314;2023-11-21T06:42:42;34.97;;;20.90;;
10851;SDS011;5479;52.046;6.314;2023-11-21T06:45:11;35.60;;;22.60;;
10851;SDS011;5479;52.046;6.314;2023-11-21T06:47:39;39.17;;;23.60;;
10851;SDS011;5479;52.046;6.314;2023-11-21T06:50:08;33.53;;;21.93;;
10851;SDS011;5479;52.046;6.314;2023-11-21T06:52:36;30.90;;;20.40;;
10851;SDS011;5479;52.046;6.314;2023-11-21T06:55:07;39.30;;;22.33;;
10851;SDS011;5479;52.046;6.314;2023-11-21T06:57:37;35.27;;;21.60;;
10851;SDS011;5479;52.046;6.314;2023-11-21T07:00:08;36.43;;;21.87;;
10851;SDS011;5479;52.046;6.314;2023-11-21T07:02:37;32.07;;;20.87;;
10851;SDS011;5479;52.046;6.314;2023-11-21T07:05:06;35.83;;;21.73;;
10851;SDS011;5479;52.046;6.314;2023-11-21T07:07:34;34.80;;;21.03;;
10851;SDS011;5479;52.046;6.314;2023-11-21T07:10:03;34.60;;;21.13;;
10851;SDS011;5479;52.046;6.314;2023-11-21T07:12:33;37.53;;;23.23;;
10851;SDS011;5479;52.046;6.314;2023-11-21T07:15:01;35.90;;;20.93;;
10851;SDS011;5479;52.046;6.314;2023-11-21T07:17:31;38.43;;;22.13;;
10851;SDS011;5479;52.046;6.314;2023-11-21T07:19:59;32.80;;;21.53;;
10851;SDS011;5479;52.046;6.314;2023-11-21T07:22:27;32.63;;;20.60;;
10851;SDS011;5479;52.046;6.314;2023-11-21T07:24:55;36.50;;;22.10;;
10851;SDS011;5479;52.046;6.314;2023-11-21T07:27:24;32.33;;;21.13;;
10851;SDS011;5479;52.046;6.314;2023-11-21T07:29:54;39.67;;;22.80;;
10851;SDS011;5479;52.046;6.314;2023-11-21T07:32:24;32.80;;;20.90;;
10851;SDS011;5479;52.046;6.314;2023-11-21T07:34:52;31.97;;;20.10;;
10851;SDS011;5479;52.046;6.314;2023-11-21T07:37:20;36.83;;;21.20;;
10851;SDS011;5479;52.046;6.314;2023-11-21T07:39:48;34.33;;;21.13;;
10851;SDS011;5479;52.046;6.314;2023-11-21T07:42:18;37.67;;;21.37;;
10851;SDS011;5479;52.046;6.314;2023-11-21T07:44:47;31.97;;;21.40;;
10851;SDS011;5479;52.046;6.314;2023-11-21T07:47:18;38.53;;;22.60;;
10851;SDS011;5479;52.046;6.314;2023-11-21T07:49:46;36.33;;;22.20;;
10851;SDS011;5479;52.046;6.314;2023-11-21T07:52:13;35.17;;;23.33;;
10851;SDS011;5479;52.046;6.314;2023-11-21T07:54:42;40.60;;;22.53;;
10851;SDS011;5479;52.046;6.314;2023-11-21T07:57:10;40.57;;;24.40;;
10851;SDS011;5479;52.046;6.314;2023-11-21T07:59:39;40.00;;;23.80;;
10851;SDS011;5479;52.046;6.314;2023-11-21T08:02:08;36.57;;;22.70;;
10851;SDS011;5479;52.046;6.314;2023-11-21T08:04:38;36.13;;;22.43;;
10851;SDS011;5479;52.046;6.314;2023-11-21T08:07:06;38.23;;;22.87;;
10851;SDS011;5479;52.046;6.314;2023-11-21T08:09:34;36.33;;;23.70;;
10851;SDS011;5479;52.046;6.314;2023-11-21T08:12:02;35.63;;;22.20;;
10851;SDS011;5479;52.046;6.314;2023-11-21T08:14:31;37.93;;;22.17;;
10851;SDS011;5479;52.046;6.314;2023-11-21T08:17:00;40.23;;;23.50;;
10851;SDS011;5479;52.046;6.314;2023-11-21T08:19:28;36.30;;;22.20;;
10851;SDS011;5479;52.046;6.314;2023-11-21T08:21:58;39.17;;;23.40;;
10851;SDS011;5479;52.046;6.314;2023-11-21T08:24:25;36.67;;;23.07;;
10851;SDS011;5479;52.046;6.314;2023-11-21T08:26:54;35.43;;;22.37;;
10851;SDS011;5479;52.046;6.314;2023-11-21T08:29:24;37.40;;;22.87;;
10851;SDS011;5479;52.046;6.314;2023-11-21T08:31:51;40.63;;;23.87;;
10851;SDS011;5479;52.046;6.314;2023-11-21T08:34:20;37.87;;;22.80;;
10851;SDS011;5479;52.046;6.314;2023-11-21T08:36:49;35.67;;;22.03;;
10851;SDS011;5479;52.046;6.314;2023-11-21T08:39:19;38.43;;;23.70;;
10851;SDS011;5479;52.046;6.314;2023-11-21T08:41:47;33.23;;;20.80;;
10851;SDS011;5479;52.046;6.314;2023-11-21T08:44:15;39.27;;;22.73;;
10851;SDS011;5479;52.046;6.314;2023-11-21T08:46:44;33.87;;;21.10;;
10851;SDS011;5479;52.046;6.314;2023-11-21T08:49:14;33.93;;;21.13;;
10851;SDS011;5479;52.046;6.314;2023-11-21T08:51:44;33.63;;;21.00;;
10851;SDS011;5479;52.046;6.314;2023-11-21T08:54:13;37.27;;;22.90;;
10851;SDS011;5479;52.046;6.314;2023-11-21T08:56:44;33.27;;;21.80;;
10851;SDS011;5479;52.046;6.314;2023-11-21T08:59:12;36.07;;;23.33;;
10851;SDS011;5479;52.046;6.314;2023-11-21T09:01:41;34.63;;;22.97;;
10851;SDS011;5479;52.046;6.314;2023-11-21T09:04:09;36.70;;;24.27;;
10851;SDS011;5479;52.046;6.314;2023-11-21T09:06:37;35.67;;;22.63;;
10851;SDS011;5479;52.046;6.314;2023-11-21T09:09:05;37.83;;;24.33;;
10851;SDS011;5479;52.046;6.314;2023-11-21T09:11:34;37.47;;;23.77;;
10851;SDS011;5479;52.046;6.314;2023-11-21T09:14:04;35.40;;;23.43;;
10851;SDS011;5479;52.046;6.314;2023-11-21T09:16:32;36.40;;;23.87;;
10851;SDS011;5479;52.046;6.314;2023-11-21T09:19:00;37.70;;;23.83;;
10851;SDS011;5479;52.046;6.314;2023-11-21T09:21:31;32.40;;;22.60;;
10851;SDS011;5479;52.046;6.314;2023-11-21T09:24:00;33.63;;;21.87;;
10851;SDS011;5479;52.046;6.314;2023-11-21T09:26:29;32.63;;;20.30;;
10851;SDS011;5479;52.046;6.314;2023-11-21T09:28:57;27.03;;;18.73;;
10851;SDS011;5479;52.046;6.314;2023-11-21T09:31:26;27.87;;;20.40;;
10851;SDS011;5479;52.046;6.314;2023-11-21T09:33:55;28.23;;;20.47;;
10851;SDS011;5479;52.046;6.314;2023-11-21T09:36:23;30.43;;;21.07;;
10851;SDS011;5479;52.046;6.314;2023-11-21T09:38:55;30.83;;;21.27;;
10851;SDS011;5479;52.046;6.314;2023-11-21T09:41:24;25.73;;;19.13;;
10851;SDS011;5479;52.046;6.314;2023-11-21T09:44:01;29.47;;;20.63;;
10851;SDS011;5479;52.046;6.314;2023-11-21T09:46:35;22.70;;;18.13;;
10851;SDS011;5479;52.046;6.314;2023-11-21T09:49:05;23.73;;;17.27;;
10851;SDS011;5479;52.046;6.314;2023-11-21T09:51:38;27.03;;;19.23;;
10851;SDS011;5479;52.046;6.314;2023-11-21T09:54:10;28.13;;;19.40;;
10851;SDS011;5479;52.046;6.314;2023-11-21T09:56:38;26.73;;;18.83;;
10851;SDS011;5479;52.046;6.314;2023-11-21T09:59:06;25.97;;;18.30;;
10851;SDS011;5479;52.046;6.314;2023-11-21T10:01:37;25.53;;;18.00;;
10851;SDS011;5479;52.046;6.314;2023-11-21T10:04:07;25.83;;;18.53;;
10851;SDS011;5479;52.046;6.314;2023-11-21T10:06:38;23.63;;;17.03;;
10851;SDS011;5479;52.046;6.314;2023-11-21T10:09:08;26.63;;;19.50;;
10851;SDS011;5479;52.046;6.314;2023-11-21T10:11:39;25.17;;;17.47;;
10851;SDS011;5479;52.046;6.314;2023-11-21T10:14:09;23.90;;;16.30;;
10851;SDS011;5479;52.046;6.314;2023-11-21T10:16:40;22.27;;;16.53;;
10851;SDS011;5479;52.046;6.314;2023-11-21T10:19:13;24.37;;;16.80;;
10851;SDS011;5479;52.046;6.314;2023-11-21T10:21:42;22.70;;;16.70;;
10851;SDS011;5479;52.046;6.314;2023-11-21T10:24:10;22.53;;;16.97;;
10851;SDS011;5479;52.046;6.314;2023-11-21T10:26:38;21.83;;;16.67;;
10851;SDS011;5479;52.046;6.314;2023-11-21T10:29:06;21.17;;;15.50;;
10851;SDS011;5479;52.046;6.314;2023-11-21T10:31:34;23.27;;;15.17;;
10851;SDS011;5479;52.046;6.314;2023-11-21T10:34:13;19.37;;;14.97;;
10851;SDS011;5479;52.046;6.314;2023-11-21T10:36:42;19.43;;;14.77;;
10851;SDS011;5479;52.046;6.314;2023-11-21T10:39:13;19.80;;;14.83;;
10851;SDS011;5479;52.046;6.314;2023-11-21T10:41:44;18.50;;;14.13;;
10851;SDS011;5479;52.046;6.314;2023-11-21T10:44:13;18.53;;;13.83;;
10851;SDS011;5479;52.046;6.314;2023-11-21T10:46:46;20.17;;;14.50;;
10851;SDS011;5479;52.046;6.314;2023-11-21T10:49:18;18.70;;;14.90;;
10851;SDS011;5479;52.046;6.314;2023-11-21T10:51:47;19.77;;;14.10;;
10851;SDS011;5479;52.046;6.314;2023-11-21T10:54:18;19.00;;;13.47;;
10851;SDS011;5479;52.046;6.314;2023-11-21T10:56:47;16.43;;;12.07;;
10851;SDS011;5479;52.046;6.314;2023-11-21T10:59:17;17.57;;;12.47;;
10851;SDS011;5479;52.046;6.314;2023-11-21T11:01:47;17.60;;;12.40;;
10851;SDS011;5479;52.046;6.314;2023-11-21T11:04:19;17.20;;;12.40;;
10851;SDS011;5479;52.046;6.314;2023-11-21T11:06:49;17.50;;;12.20;;
10851;SDS011;5479;52.046;6.314;2023-11-21T11:09:21;15.57;;;11.80;;
10851;SDS011;5479;52.046;6.314;2023-11-21T11:11:49;15.63;;;11.53;;
10851;SDS011;5479;52.046;6.314;2023-11-21T11:14:19;17.80;;;11.87;;
10851;SDS011;5479;52.046;6.314;2023-11-21T11:16:53;17.53;;;12.13;;
10851;SDS011;5479;52.046;6.314;2023-11-21T11:19:23;17.93;;;12.87;;
10851;SDS011;5479;52.046;6.314;2023-11-21T11:21:53;17.77;;;12.73;;
10851;SDS011;5479;52.046;6.314;2023-11-21T11:24:33;17.87;;;12.83;;
10851;SDS011;5479;52.046;6.314;2023-11-21T11:27:15;17.30;;;12.10;;
10851;SDS011;5479;52.046;6.314;2023-11-21T11:29:54;16.73;;;12.10;;
10851;SDS011;5479;52.046;6.314;2023-11-21T11:32:43;18.43;;;12.90;;
10851;SDS011;5479;52.046;6.314;2023-11-21T11:35:26;16.40;;;12.33;;
10851;SDS011;5479;52.046;6.314;2023-11-21T11:38:01;18.23;;;12.90;;
10851;SDS011;5479;52.046;6.314;2023-11-21T11:40:38;19.33;;;14.70;;
10851;SDS011;5479;52.046;6.314;2023-11-21T11:43:06;21.10;;;13.97;;
10851;SDS011;5479;52.046;6.314;2023-11-21T11:45:35;18.73;;;13.97;;
10851;SDS011;5479;52.046;6.314;2023-11-21T11:48:07;20.07;;;14.53;;
10851;SDS011;5479;52.046;6.314;2023-11-21T11:50:43;20.87;;;14.83;;
10851;SDS011;5479;52.046;6.314;2023-11-21T11:53:33;21.80;;;15.23;;
10851;SDS011;5479;52.046;6.314;2023-11-21T11:56:20;21.33;;;15.47;;
10851;SDS011;5479;52.046;6.314;2023-11-21T11:58:52;20.80;;;15.20;;
10851;SDS011;5479;52.046;6.314;2023-11-21T12:01:22;23.03;;;15.30;;
10851;SDS011;5479;52.046;6.314;2023-11-21T12:07:02;21.60;;;15.37;;
10851;SDS011;5479;52.046;6.314;2023-11-21T12:09:31;20.77;;;14.70;;
10851;SDS011;5479;52.046;6.314;2023-11-21T12:11:59;22.53;;;15.33;;
10851;SDS011;5479;52.046;6.314;2023-11-21T12:14:27;22.13;;;14.57;;
10851;SDS011;5479;52.046;6.314;2023-11-21T12:16:55;23.27;;;15.50;;
10851;SDS011;5479;52.046;6.314;2023-11-21T12:19:23;21.47;;;14.70;;
10851;SDS011;5479;52.046;6.314;2023-11-21T12:21:51;23.63;;;15.30;;
10851;SDS011;5479;52.046;6.314;2023-11-21T12:24:23;22.13;;;14.57;;
10851;SDS011;5479;52.046;6.314;2023-11-21T12:26:52;19.40;;;14.17;;
10851;SDS011;5479;52.046;6.314;2023-11-21T12:29:20;19.33;;;13.83;;
10851;SDS011;5479;52.046;6.314;2023-11-21T12:31:48;22.47;;;15.20;;
10851;SDS011;5479;52.046;6.314;2023-11-21T12:34:17;18.33;;;13.40;;
10851;SDS011;5479;52.046;6.314;2023-11-21T12:36:45;19.63;;;13.70;;
10851;SDS011;5479;52.046;6.314;2023-11-21T12:39:13;20.23;;;13.77;;
10851;SDS011;5479;52.046;6.314;2023-11-21T12:41:42;20.53;;;14.00;;
10851;SDS011;5479;52.046;6.314;2023-11-21T12:44:11;20.37;;;13.23;;
10851;SDS011;5479;52.046;6.314;2023-11-21T12:46:42;20.43;;;13.77;;
10851;SDS011;5479;52.046;6.314;2023-11-21T12:49:12;21.23;;;13.57;;
10851;SDS011;5479;52.046;6.314;2023-11-21T12:51:44;19.63;;;14.47;;
10851;SDS011;5479;52.046;6.314;2023-11-21T12:54:13;21.33;;;13.20;;
10851;SDS011;5479;52.046;6.314;2023-11-21T12:56:44;21.43;;;13.97;;
10851;SDS011;5479;52.046;6.314;2023-11-21T12:59:13;20.73;;;14.10;;
10851;SDS011;5479;52.046;6.314;2023-11-21T13:01:42;20.37;;;14.03;;
10851;SDS011;5479;52.046;6.314;2023-11-21T13:04:11;19.30;;;14.20;;
10851;SDS011;5479;52.046;6.314;2023-11-21T13:06:39;22.20;;;14.13;;
10851;SDS011;5479;52.046;6.314;2023-11-21T13:09:07;22.07;;;14.57;;
10851;SDS011;5479;52.046;6.314;2023-11-21T13:11:37;21.27;;;14.03;;
10851;SDS011;5479;52.046;6.314;2023-11-21T13:14:08;21.10;;;13.20;;
10851;SDS011;5479;52.046;6.314;2023-11-21T13:16:38;20.77;;;13.23;;
10851;SDS011;5479;52.046;6.314;2023-11-21T13:19:12;21.00;;;13.40;;
10851;SDS011;5479;52.046;6.314;2023-11-21T13:21:40;17.77;;;10.73;;
10851;SDS011;5479;52.046;6.314;2023-11-21T13:24:08;18.57;;;10.97;;
10851;SDS011;5479;52.046;6.314;2023-11-21T13:26:36;16.97;;;10.53;;
10851;SDS011;5479;52.046;6.314;2023-11-21T13:29:05;18.77;;;11.07;;
10851;SDS011;5479;52.046;6.314;2023-11-21T13:31:34;18.30;;;10.60;;
10851;SDS011;5479;52.046;6.314;2023-11-21T13:34:03;18.53;;;11.00;;
10851;SDS011;5479;52.046;6.314;2023-11-21T13:36:34;19.57;;;11.40;;
10851;SDS011;5479;52.046;6.314;2023-11-21T13:39:02;21.07;;;12.13;;
10851;SDS011;5479;52.046;6.314;2023-11-21T13:41:33;22.50;;;12.10;;
10851;SDS011;5479;52.046;6.314;2023-11-21T13:44:04;21.87;;;12.20;;
10851;SDS011;5479;52.046;6.314;2023-11-21T13:46:43;21.77;;;13.17;;
10851;SDS011;5479;52.046;6.314;2023-11-21T13:49:13;20.27;;;12.47;;
10851;SDS011;5479;52.046;6.314;2023-11-21T13:51:42;21.53;;;12.60;;
10851;SDS011;5479;52.046;6.314;2023-11-21T13:54:11;19.80;;;11.67;;
10851;SDS011;5479;52.046;6.314;2023-11-21T13:56:39;21.03;;;11.83;;
10851;SDS011;5479;52.046;6.314;2023-11-21T13:59:10;21.03;;;11.90;;
10851;SDS011;5479;52.046;6.314;2023-11-21T14:01:48;19.87;;;12.20;;
10851;SDS011;5479;52.046;6.314;2023-11-21T14:04:24;18.77;;;11.67;;
10851;SDS011;5479;52.046;6.314;2023-11-21T14:07:13;19.57;;;11.40;;
10851;SDS011;5479;52.046;6.314;2023-11-21T14:09:52;15.83;;;10.07;;
10851;SDS011;5479;52.046;6.314;2023-11-21T14:12:21;18.23;;;10.77;;
10851;SDS011;5479;52.046;6.314;2023-11-21T14:14:51;15.47;;;9.53;;
10851;SDS011;5479;52.046;6.314;2023-11-21T14:17:22;15.33;;;9.97;;
10851;SDS011;5479;52.046;6.314;2023-11-21T14:19:50;15.27;;;9.33;;
10851;SDS011;5479;52.046;6.314;2023-11-21T14:22:19;14.93;;;9.20;;
10851;SDS011;5479;52.046;6.314;2023-11-21T14:24:47;13.90;;;9.60;;
10851;SDS011;5479;52.046;6.314;2023-11-21T14:27:18;14.63;;;9.27;;
10851;SDS011;5479;52.046;6.314;2023-11-21T14:29:47;15.20;;;10.10;;
10851;SDS011;5479;52.046;6.314;2023-11-21T14:32:15;14.27;;;10.13;;
10851;SDS011;5479;52.046;6.314;2023-11-21T14:34:45;16.77;;;11.23;;
10851;SDS011;5479;52.046;6.314;2023-11-21T14:37:14;14.93;;;10.63;;
10851;SDS011;5479;52.046;6.314;2023-11-21T14:39:42;14.90;;;11.07;;
10851;SDS011;5479;52.046;6.314;2023-11-21T14:42:12;14.33;;;11.07;;
10851;SDS011;5479;52.046;6.314;2023-11-21T14:44:41;14.30;;;11.40;;
10851;SDS011;5479;52.046;6.314;2023-11-21T14:47:09;14.73;;;11.73;;
10851;SDS011;5479;52.046;6.314;2023-11-21T14:49:42;13.27;;;11.50;;
10851;SDS011;5479;52.046;6.314;2023-11-21T14:52:19;14.70;;;11.27;;